sensor_id;sensor_type;location;lat;lon;timestamp;P1;durP1;ratioP1;P2;durP2;ratioP2
6177;SDS011;3122;48.208;11.174;2023-02-28T00:00:35;6.93;;;4.33;;
6177;SDS011;3122;48.208;11.174;2023-02-28T00:05:36;4.60;;;3.53;;
6177;SDS011;3122;48.208;11.174;2023-02-28T00:10:36;4.43;;;3.60;;
6177;SDS011;3122;48.208;11.174;2023-02-28T00:15:38;5.10;;;3.80;;
6177;SDS011;3122;48.208;11.174;2023-02-28T00:20:38;4.80;;;4.30;;
6177;SDS011;3122;48.208;11.174;2023-02-28T00:25:39;4.50;;;3.63;;
6177;SDS011;3122;48.208;11.174;2023-02-28T00:30:40;4.23;;;3.83;;
6177;SDS011;3122;48.208;11.174;2023-02-28T00:35:40;7.67;;;4.43;;
6177;SDS011;3122;48.208;11.174;2023-02-28T00:40:41;6.10;;;3.97;;
6177;SDS011;3122;48.208;11.174;2023-02-28T00:45:41;5.30;;;4.37;;
6177;SDS011;3122;48.208;11.174;2023-02-28T00:50:43;7.33;;;4.63;;
6177;SDS011;3122;48.208;11.174;2023-02-28T00:55:43;6.63;;;4.70;;
6177;SDS011;3122;48.208;11.174;2023-02-28T01:00:44;7.37;;;4.60;;
6177;SDS011;3122;48.208;11.174;2023-02-28T01:05:48;6.67;;;4.40;;
6177;SDS011;3122;48.208;11.174;2023-02-28T01:10:49;4.97;;;4.33;;
6177;SDS011;3122;48.208;11.174;2023-02-28T01:15:50;6.90;;;4.23;;
6177;SDS011;3122;48.208;11.174;2023-02-28T01:20:52;5.80;;;4.60;;
6177;SDS011;3122;48.208;11.174;2023-02-28T01:25:53;5.33;;;4.30;;
6177;SDS011;3122;48.208;11.174;2023-02-28T01:30:54;8.47;;;4.67;;
6177;SDS011;3122;48.208;11.174;2023-02-28T01:35:58;5.63;;;4.10;;
6177;SDS011;3122;48.208;11.174;2023-02-28T01:40:59;6.97;;;3.90;;
6177;SDS011;3122;48.208;11.174;2023-02-28T01:46:00;7.30;;;4.77;;
6177;SDS011;3122;48.208;11.174;2023-02-28T01:51:02;4.80;;;4.03;;
6177;SDS011;3122;48.208;11.174;2023-02-28T01:56:08;8.47;;;4.90;;
6177;SDS011;3122;48.208;11.174;2023-02-28T02:01:10;5.50;;;3.87;;
6177;SDS011;3122;48.208;11.174;2023-02-28T02:06:31;6.60;;;4.40;;
6177;SDS011;3122;48.208;11.174;2023-02-28T02:11:37;6.83;;;4.60;;
6177;SDS011;3122;48.208;11.174;2023-02-28T02:33:03;5.90;;;4.30;;
6177;SDS011;3122;48.208;11.174;2023-02-28T02:38:19;6.30;;;4.70;;
6177;SDS011;3122;48.208;11.174;2023-02-28T02:44:02;5.50;;;4.10;;
6177;SDS011;3122;48.208;11.174;2023-02-28T02:49:01;6.60;;;4.77;;
6177;SDS011;3122;48.208;11.174;2023-02-28T02:59:20;8.40;;;4.80;;
6177;SDS011;3122;48.208;11.174;2023-02-28T03:04:24;6.87;;;4.40;;
6177;SDS011;3122;48.208;11.174;2023-02-28T03:09:28;8.67;;;4.97;;
6177;SDS011;3122;48.208;11.174;2023-02-28T03:19:47;7.17;;;4.60;;
6177;SDS011;3122;48.208;11.174;2023-02-28T03:30:14;8.83;;;5.33;;
6177;SDS011;3122;48.208;11.174;2023-02-28T03:35:39;7.70;;;5.33;;
6177;SDS011;3122;48.208;11.174;2023-02-28T03:40:51;7.60;;;5.43;;
6177;SDS011;3122;48.208;11.174;2023-02-28T03:45:56;7.83;;;5.40;;
6177;SDS011;3122;48.208;11.174;2023-02-28T03:50:59;8.40;;;5.27;;
6177;SDS011;3122;48.208;11.174;2023-02-28T03:56:05;10.10;;;6.03;;
6177;SDS011;3122;48.208;11.174;2023-02-28T04:01:36;10.93;;;5.70;;
6177;SDS011;3122;48.208;11.174;2023-02-28T04:06:41;11.37;;;6.50;;
6177;SDS011;3122;48.208;11.174;2023-02-28T04:11:44;8.30;;;5.73;;
6177;SDS011;3122;48.208;11.174;2023-02-28T04:16:46;10.40;;;6.30;;
6177;SDS011;3122;48.208;11.174;2023-02-28T04:21:48;10.80;;;6.90;;
6177;SDS011;3122;48.208;11.174;2023-02-28T04:26:51;11.47;;;6.70;;
6177;SDS011;3122;48.208;11.174;2023-02-28T04:31:54;9.83;;;6.23;;
6177;SDS011;3122;48.208;11.174;2023-02-28T04:36:57;11.23;;;6.67;;
6177;SDS011;3122;48.208;11.174;2023-02-28T04:42:00;10.00;;;6.30;;
6177;SDS011;3122;48.208;11.174;2023-02-28T04:47:00;13.20;;;7.27;;
6177;SDS011;3122;48.208;11.174;2023-02-28T04:52:01;11.20;;;6.70;;
6177;SDS011;3122;48.208;11.174;2023-02-28T04:57:01;15.00;;;7.47;;
6177;SDS011;3122;48.208;11.174;2023-02-28T05:02:02;11.10;;;6.90;;
6177;SDS011;3122;48.208;11.174;2023-02-28T05:07:06;12.07;;;7.47;;
6177;SDS011;3122;48.208;11.174;2023-02-28T05:12:07;12.77;;;7.80;;
6177;SDS011;3122;48.208;11.174;2023-02-28T05:17:09;13.33;;;8.00;;
6177;SDS011;3122;48.208;11.174;2023-02-28T05:22:13;14.37;;;8.73;;
6177;SDS011;3122;48.208;11.174;2023-02-28T05:27:16;14.53;;;8.70;;
6177;SDS011;3122;48.208;11.174;2023-02-28T05:32:17;14.70;;;8.17;;
6177;SDS011;3122;48.208;11.174;2023-02-28T05:37:17;18.27;;;9.03;;
6177;SDS011;3122;48.208;11.174;2023-02-28T05:42:18;13.83;;;8.60;;
6177;SDS011;3122;48.208;11.174;2023-02-28T05:47:18;14.67;;;8.77;;
6177;SDS011;3122;48.208;11.174;2023-02-28T05:52:19;15.00;;;9.07;;
6177;SDS011;3122;48.208;11.174;2023-02-28T05:57:21;14.50;;;8.60;;
6177;SDS011;3122;48.208;11.174;2023-02-28T06:02:22;14.83;;;8.70;;
6177;SDS011;3122;48.208;11.174;2023-02-28T06:07:22;20.40;;;9.57;;
6177;SDS011;3122;48.208;11.174;2023-02-28T06:12:23;18.67;;;10.20;;
6177;SDS011;3122;48.208;11.174;2023-02-28T06:17:23;17.87;;;10.27;;
6177;SDS011;3122;48.208;11.174;2023-02-28T06:22:24;18.13;;;10.53;;
6177;SDS011;3122;48.208;11.174;2023-02-28T06:27:25;17.80;;;10.37;;
6177;SDS011;3122;48.208;11.174;2023-02-28T06:32:25;17.20;;;9.57;;
6177;SDS011;3122;48.208;11.174;2023-02-28T06:37:26;15.47;;;9.73;;
6177;SDS011;3122;48.208;11.174;2023-02-28T06:42:26;18.77;;;10.80;;
6177;SDS011;3122;48.208;11.174;2023-02-28T06:47:30;19.70;;;10.57;;
6177;SDS011;3122;48.208;11.174;2023-02-28T06:52:31;18.30;;;10.57;;
6177;SDS011;3122;48.208;11.174;2023-02-28T06:57:32;20.03;;;11.10;;
6177;SDS011;3122;48.208;11.174;2023-02-28T07:02:35;18.07;;;10.57;;
6177;SDS011;3122;48.208;11.174;2023-02-28T07:07:36;21.40;;;12.37;;
6177;SDS011;3122;48.208;11.174;2023-02-28T07:12:38;21.07;;;12.23;;
6177;SDS011;3122;48.208;11.174;2023-02-28T07:17:39;23.57;;;12.50;;
6177;SDS011;3122;48.208;11.174;2023-02-28T07:22:39;21.87;;;11.97;;
6177;SDS011;3122;48.208;11.174;2023-02-28T07:27:40;19.47;;;11.00;;
6177;SDS011;3122;48.208;11.174;2023-02-28T07:32:40;22.77;;;12.80;;
6177;SDS011;3122;48.208;11.174;2023-02-28T07:37:41;21.93;;;12.03;;
6177;SDS011;3122;48.208;11.174;2023-02-28T07:42:42;22.57;;;11.87;;
6177;SDS011;3122;48.208;11.174;2023-02-28T07:47:43;27.60;;;13.47;;
6177;SDS011;3122;48.208;11.174;2023-02-28T07:52:44;22.07;;;12.33;;
6177;SDS011;3122;48.208;11.174;2023-02-28T07:57:44;25.43;;;13.10;;
6177;SDS011;3122;48.208;11.174;2023-02-28T08:02:45;26.10;;;13.60;;
6177;SDS011;3122;48.208;11.174;2023-02-28T08:07:46;26.50;;;13.87;;
6177;SDS011;3122;48.208;11.174;2023-02-28T08:12:48;24.20;;;12.97;;
6177;SDS011;3122;48.208;11.174;2023-02-28T08:17:49;24.70;;;13.10;;
6177;SDS011;3122;48.208;11.174;2023-02-28T08:22:50;23.30;;;12.80;;
6177;SDS011;3122;48.208;11.174;2023-02-28T08:27:51;30.50;;;13.47;;
6177;SDS011;3122;48.208;11.174;2023-02-28T08:32:53;26.77;;;13.90;;
6177;SDS011;3122;48.208;11.174;2023-02-28T08:37:54;24.47;;;13.60;;
6177;SDS011;3122;48.208;11.174;2023-02-28T08:42:55;21.97;;;13.30;;
6177;SDS011;3122;48.208;11.174;2023-02-28T08:47:57;26.93;;;13.43;;
6177;SDS011;3122;48.208;11.174;2023-02-28T08:52:58;24.40;;;13.23;;
6177;SDS011;3122;48.208;11.174;2023-02-28T08:57:59;22.70;;;13.83;;
6177;SDS011;3122;48.208;11.174;2023-02-28T09:03:01;24.50;;;13.10;;
6177;SDS011;3122;48.208;11.174;2023-02-28T09:08:01;26.63;;;14.57;;
6177;SDS011;3122;48.208;11.174;2023-02-28T09:13:02;28.53;;;15.67;;
6177;SDS011;3122;48.208;11.174;2023-02-28T09:18:03;23.97;;;13.70;;
6177;SDS011;3122;48.208;11.174;2023-02-28T09:23:03;25.93;;;14.77;;
6177;SDS011;3122;48.208;11.174;2023-02-28T09:28:04;25.63;;;13.37;;
6177;SDS011;3122;48.208;11.174;2023-02-28T09:33:05;26.80;;;13.73;;
6177;SDS011;3122;48.208;11.174;2023-02-28T09:38:06;24.00;;;14.17;;
6177;SDS011;3122;48.208;11.174;2023-02-28T09:43:09;23.53;;;13.80;;
6177;SDS011;3122;48.208;11.174;2023-02-28T09:48:14;24.80;;;13.37;;
6177;SDS011;3122;48.208;11.174;2023-02-28T09:53:29;28.93;;;14.27;;
6177;SDS011;3122;48.208;11.174;2023-02-28T10:04:03;33.67;;;13.97;;
6177;SDS011;3122;48.208;11.174;2023-02-28T10:09:25;22.27;;;13.13;;
6177;SDS011;3122;48.208;11.174;2023-02-28T10:14:31;26.60;;;13.50;;
6177;SDS011;3122;48.208;11.174;2023-02-28T10:19:35;21.50;;;12.67;;
6177;SDS011;3122;48.208;11.174;2023-02-28T10:24:46;20.30;;;14.03;;
6177;SDS011;3122;48.208;11.174;2023-02-28T10:29:49;24.37;;;14.17;;
6177;SDS011;3122;48.208;11.174;2023-02-28T10:34:57;24.53;;;14.23;;
6177;SDS011;3122;48.208;11.174;2023-02-28T10:45:19;21.73;;;13.47;;
6177;SDS011;3122;48.208;11.174;2023-02-28T10:50:26;26.23;;;14.43;;
6177;SDS011;3122;48.208;11.174;2023-02-28T10:55:42;24.37;;;13.80;;
6177;SDS011;3122;48.208;11.174;2023-02-28T11:00:43;22.80;;;13.37;;
6177;SDS011;3122;48.208;11.174;2023-02-28T11:05:43;21.33;;;13.60;;
6177;SDS011;3122;48.208;11.174;2023-02-28T11:10:53;25.83;;;14.97;;
6177;SDS011;3122;48.208;11.174;2023-02-28T11:15:59;24.90;;;13.80;;
6177;SDS011;3122;48.208;11.174;2023-02-28T11:21:02;25.20;;;15.40;;
6177;SDS011;3122;48.208;11.174;2023-02-28T11:26:04;23.00;;;13.47;;
6177;SDS011;3122;48.208;11.174;2023-02-28T11:36:12;29.53;;;16.70;;
6177;SDS011;3122;48.208;11.174;2023-02-28T11:46:36;20.40;;;12.70;;
6177;SDS011;3122;48.208;11.174;2023-02-28T12:02:26;21.63;;;13.23;;
6177;SDS011;3122;48.208;11.174;2023-02-28T12:07:37;22.97;;;13.73;;
6177;SDS011;3122;48.208;11.174;2023-02-28T12:12:58;20.80;;;13.10;;
6177;SDS011;3122;48.208;11.174;2023-02-28T12:28:33;22.77;;;13.77;;
6177;SDS011;3122;48.208;11.174;2023-02-28T12:33:42;22.50;;;12.57;;
6177;SDS011;3122;48.208;11.174;2023-02-28T12:39:31;19.13;;;12.00;;
6177;SDS011;3122;48.208;11.174;2023-02-28T12:50:06;18.20;;;12.00;;
6177;SDS011;3122;48.208;11.174;2023-02-28T13:00:22;20.63;;;12.40;;
6177;SDS011;3122;48.208;11.174;2023-02-28T13:05:39;18.60;;;12.03;;
6177;SDS011;3122;48.208;11.174;2023-02-28T13:10:50;21.10;;;12.50;;
6177;SDS011;3122;48.208;11.174;2023-02-28T13:16:07;19.20;;;12.00;;
6177;SDS011;3122;48.208;11.174;2023-02-28T13:21:23;19.17;;;12.47;;
6177;SDS011;3122;48.208;11.174;2023-02-28T13:32:38;16.27;;;11.17;;
6177;SDS011;3122;48.208;11.174;2023-02-28T13:47:52;19.53;;;12.33;;
6177;SDS011;3122;48.208;11.174;2023-02-28T14:08:54;19.80;;;11.20;;
6177;SDS011;3122;48.208;11.174;2023-02-28T14:13:58;21.80;;;12.30;;
6177;SDS011;3122;48.208;11.174;2023-02-28T14:19:01;19.20;;;12.03;;
6177;SDS011;3122;48.208;11.174;2023-02-28T14:34:58;19.00;;;12.30;;
6177;SDS011;3122;48.208;11.174;2023-02-28T14:40:32;23.67;;;12.67;;
6177;SDS011;3122;48.208;11.174;2023-02-28T14:45:35;19.30;;;11.03;;
6177;SDS011;3122;48.208;11.174;2023-02-28T14:50:37;16.03;;;11.80;;
6177;SDS011;3122;48.208;11.174;2023-02-28T14:55:43;16.70;;;11.50;;
6177;SDS011;3122;48.208;11.174;2023-02-28T15:00:48;19.00;;;11.80;;
6177;SDS011;3122;48.208;11.174;2023-02-28T15:05:57;18.10;;;11.73;;
6177;SDS011;3122;48.208;11.174;2023-02-28T15:11:03;24.97;;;11.93;;
6177;SDS011;3122;48.208;11.174;2023-02-28T15:16:11;17.23;;;10.93;;
6177;SDS011;3122;48.208;11.174;2023-02-28T15:26:25;19.27;;;11.77;;
6177;SDS011;3122;48.208;11.174;2023-02-28T15:31:32;23.03;;;11.40;;
6177;SDS011;3122;48.208;11.174;2023-02-28T15:36:35;17.40;;;11.27;;
6177;SDS011;3122;48.208;11.174;2023-02-28T15:41:37;23.63;;;12.97;;
6177;SDS011;3122;48.208;11.174;2023-02-28T15:46:44;17.13;;;11.60;;
6177;SDS011;3122;48.208;11.174;2023-02-28T15:51:55;20.53;;;12.63;;
6177;SDS011;3122;48.208;11.174;2023-02-28T15:57:01;17.37;;;11.33;;
6177;SDS011;3122;48.208;11.174;2023-02-28T16:02:14;18.07;;;11.90;;
6177;SDS011;3122;48.208;11.174;2023-02-28T16:07:20;17.60;;;11.57;;
6177;SDS011;3122;48.208;11.174;2023-02-28T16:12:22;22.37;;;12.43;;
6177;SDS011;3122;48.208;11.174;2023-02-28T16:17:27;20.50;;;11.70;;
6177;SDS011;3122;48.208;11.174;2023-02-28T16:22:30;18.67;;;12.17;;
6177;SDS011;3122;48.208;11.174;2023-02-28T16:27:32;17.20;;;10.73;;
6177;SDS011;3122;48.208;11.174;2023-02-28T16:32:35;19.07;;;11.23;;
6177;SDS011;3122;48.208;11.174;2023-02-28T16:37:36;19.13;;;12.53;;
6177;SDS011;3122;48.208;11.174;2023-02-28T16:42:37;15.77;;;10.23;;
6177;SDS011;3122;48.208;11.174;2023-02-28T16:47:38;55.13;;;27.17;;
6177;SDS011;3122;48.208;11.174;2023-02-28T16:52:39;28.67;;;18.03;;
6177;SDS011;3122;48.208;11.174;2023-02-28T16:57:39;22.50;;;14.87;;
6177;SDS011;3122;48.208;11.174;2023-02-28T17:02:40;23.20;;;13.40;;
6177;SDS011;3122;48.208;11.174;2023-02-28T17:07:41;19.80;;;12.57;;
6177;SDS011;3122;48.208;11.174;2023-02-28T17:12:42;20.93;;;12.23;;
6177;SDS011;3122;48.208;11.174;2023-02-28T17:17:43;17.27;;;11.07;;
6177;SDS011;3122;48.208;11.174;2023-02-28T17:22:45;18.40;;;10.97;;
6177;SDS011;3122;48.208;11.174;2023-02-28T17:27:46;26.40;;;16.30;;
6177;SDS011;3122;48.208;11.174;2023-02-28T17:32:47;62.53;;;26.77;;
6177;SDS011;3122;48.208;11.174;2023-02-28T17:37:47;114.67;;;41.17;;
6177;SDS011;3122;48.208;11.174;2023-02-28T17:42:48;55.63;;;29.13;;
6177;SDS011;3122;48.208;11.174;2023-02-28T17:47:51;102.57;;;42.70;;
6177;SDS011;3122;48.208;11.174;2023-02-28T17:52:52;284.47;;;92.93;;
6177;SDS011;3122;48.208;11.174;2023-02-28T17:57:53;199.80;;;74.63;;
6177;SDS011;3122;48.208;11.174;2023-02-28T18:02:53;40.23;;;22.90;;
6177;SDS011;3122;48.208;11.174;2023-02-28T18:07:54;36.77;;;22.23;;
6177;SDS011;3122;48.208;11.174;2023-02-28T18:12:55;28.70;;;18.17;;
6177;SDS011;3122;48.208;11.174;2023-02-28T18:17:56;158.87;;;59.20;;
6177;SDS011;3122;48.208;11.174;2023-02-28T18:22:56;65.27;;;34.50;;
6177;SDS011;3122;48.208;11.174;2023-02-28T18:27:57;31.63;;;18.07;;
6177;SDS011;3122;48.208;11.174;2023-02-28T18:32:58;27.67;;;14.97;;
6177;SDS011;3122;48.208;11.174;2023-02-28T18:38:00;26.93;;;16.10;;
6177;SDS011;3122;48.208;11.174;2023-02-28T18:43:03;24.13;;;13.73;;
6177;SDS011;3122;48.208;11.174;2023-02-28T18:48:04;106.37;;;35.20;;
6177;SDS011;3122;48.208;11.174;2023-02-28T18:53:05;232.10;;;58.73;;
6177;SDS011;3122;48.208;11.174;2023-02-28T18:58:05;75.27;;;30.03;;
6177;SDS011;3122;48.208;11.174;2023-02-28T19:03:06;89.70;;;34.07;;
6177;SDS011;3122;48.208;11.174;2023-02-28T19:08:07;65.63;;;29.20;;
6177;SDS011;3122;48.208;11.174;2023-02-28T19:13:07;93.17;;;37.57;;
6177;SDS011;3122;48.208;11.174;2023-02-28T19:18:08;55.87;;;26.00;;
6177;SDS011;3122;48.208;11.174;2023-02-28T19:23:09;162.07;;;60.60;;
6177;SDS011;3122;48.208;11.174;2023-02-28T19:28:11;90.50;;;41.00;;
6177;SDS011;3122;48.208;11.174;2023-02-28T19:33:13;48.90;;;27.07;;
6177;SDS011;3122;48.208;11.174;2023-02-28T19:38:15;41.90;;;24.40;;
6177;SDS011;3122;48.208;11.174;2023-02-28T19:43:15;36.20;;;22.70;;
6177;SDS011;3122;48.208;11.174;2023-02-28T19:48:16;25.70;;;15.70;;
6177;SDS011;3122;48.208;11.174;2023-02-28T19:53:17;23.37;;;14.63;;
6177;SDS011;3122;48.208;11.174;2023-02-28T19:58:17;25.60;;;15.00;;
6177;SDS011;3122;48.208;11.174;2023-02-28T20:03:18;51.63;;;22.27;;
6177;SDS011;3122;48.208;11.174;2023-02-28T20:08:19;37.93;;;17.80;;
6177;SDS011;3122;48.208;11.174;2023-02-28T20:13:19;37.50;;;18.47;;
6177;SDS011;3122;48.208;11.174;2023-02-28T20:18:20;29.23;;;16.50;;
6177;SDS011;3122;48.208;11.174;2023-02-28T20:23:21;26.90;;;14.63;;
6177;SDS011;3122;48.208;11.174;2023-02-28T20:28:22;24.20;;;14.50;;
6177;SDS011;3122;48.208;11.174;2023-02-28T20:33:22;28.20;;;14.30;;
6177;SDS011;3122;48.208;11.174;2023-02-28T20:38:23;26.13;;;14.50;;
6177;SDS011;3122;48.208;11.174;2023-02-28T20:43:23;29.80;;;15.57;;
6177;SDS011;3122;48.208;11.174;2023-02-28T20:48:24;25.40;;;15.10;;
6177;SDS011;3122;48.208;11.174;2023-02-28T20:53:25;31.23;;;17.50;;
6177;SDS011;3122;48.208;11.174;2023-02-28T20:58:28;32.00;;;18.33;;
6177;SDS011;3122;48.208;11.174;2023-02-28T21:03:30;28.43;;;16.20;;
6177;SDS011;3122;48.208;11.174;2023-02-28T21:08:32;52.40;;;23.37;;
6177;SDS011;3122;48.208;11.174;2023-02-28T21:13:34;66.30;;;30.40;;
6177;SDS011;3122;48.208;11.174;2023-02-28T21:18:35;98.67;;;40.00;;
6177;SDS011;3122;48.208;11.174;2023-02-28T21:23:36;71.87;;;34.47;;
6177;SDS011;3122;48.208;11.174;2023-02-28T21:28:37;36.90;;;19.40;;
6177;SDS011;3122;48.208;11.174;2023-02-28T21:33:43;31.13;;;17.80;;
6177;SDS011;3122;48.208;11.174;2023-02-28T21:38:44;31.87;;;17.37;;
6177;SDS011;3122;48.208;11.174;2023-02-28T21:43:46;28.60;;;16.53;;
6177;SDS011;3122;48.208;11.174;2023-02-28T21:48:48;29.67;;;17.07;;
6177;SDS011;3122;48.208;11.174;2023-02-28T21:53:49;31.37;;;17.50;;
6177;SDS011;3122;48.208;11.174;2023-02-28T21:58:50;31.20;;;17.80;;
6177;SDS011;3122;48.208;11.174;2023-02-28T22:03:59;28.63;;;17.10;;
6177;SDS011;3122;48.208;11.174;2023-02-28T22:09:01;31.50;;;17.40;;
6177;SDS011;3122;48.208;11.174;2023-02-28T22:14:05;30.30;;;16.00;;
6177;SDS011;3122;48.208;11.174;2023-02-28T22:19:07;28.80;;;15.30;;
6177;SDS011;3122;48.208;11.174;2023-02-28T22:24:09;26.30;;;15.27;;
6177;SDS011;3122;48.208;11.174;2023-02-28T22:29:10;27.93;;;16.07;;
6177;SDS011;3122;48.208;11.174;2023-02-28T22:34:11;27.20;;;16.00;;
6177;SDS011;3122;48.208;11.174;2023-02-28T22:39:12;28.57;;;16.13;;
6177;SDS011;3122;48.208;11.174;2023-02-28T22:44:12;25.67;;;15.13;;
6177;SDS011;3122;48.208;11.174;2023-02-28T22:49:13;26.67;;;15.00;;
6177;SDS011;3122;48.208;11.174;2023-02-28T22:54:13;30.23;;;16.07;;
6177;SDS011;3122;48.208;11.174;2023-02-28T22:59:14;29.13;;;16.33;;
6177;SDS011;3122;48.208;11.174;2023-02-28T23:04:14;28.30;;;16.20;;
6177;SDS011;3122;48.208;11.174;2023-02-28T23:09:16;26.70;;;15.53;;
6177;SDS011;3122;48.208;11.174;2023-02-28T23:14:18;27.37;;;15.17;;
6177;SDS011;3122;48.208;11.174;2023-02-28T23:24:22;27.20;;;14.70;;
6177;SDS011;3122;48.208;11.174;2023-02-28T23:29:25;25.03;;;14.70;;
6177;SDS011;3122;48.208;11.174;2023-02-28T23:34:27;28.70;;;14.80;;
6177;SDS011;3122;48.208;11.174;2023-02-28T23:39:30;26.77;;;15.80;;
6177;SDS011;3122;48.208;11.174;2023-02-28T23:44:31;28.40;;;14.80;;
6177;SDS011;3122;48.208;11.174;2023-02-28T23:49:32;30.53;;;17.10;;
6177;SDS011;3122;48.208;11.174;2023-02-28T23:54:32;30.53;;;16.67;;
6177;SDS011;3122;48.208;11.174;2023-02-28T23:59:33;27.53;;;15.80;;
